TimeCDT,TemperatureF,Dew PointF,Humidity,Sea Level PressureIn,VisibilityMPH,Wind Direction,Wind SpeedMPH,Gust SpeedMPH,PrecipitationIn,Events,Conditions,WindDirDegrees,DateUTC
12:52 AM,73.9,66.0,76,29.70,10.0,SSW,12.7,-,N/A,,Clear,200,2012-10-24 05:52:00
1:52 AM,73.9,66.0,76,29.70,10.0,SSW,12.7,-,N/A,,Clear,200,2012-10-24 06:52:00
2:52 AM,73.0,66.0,79,29.69,10.0,SSW,12.7,-,N/A,,Clear,200,2012-10-24 07:52:00
3:52 AM,73.0,64.9,76,29.68,10.0,South,13.8,-,N/A,,Clear,190,2012-10-24 08:52:00
4:52 AM,72.0,64.9,78,29.68,10.0,SSW,13.8,25.3,N/A,,Clear,200,2012-10-24 09:52:00
5:52 AM,72.0,64.0,76,29.67,10.0,SSW,13.8,21.9,N/A,,Clear,200,2012-10-24 10:52:00
6:52 AM,71.1,64.0,78,29.69,10.0,SSW,16.1,26.5,N/A,,Clear,200,2012-10-24 11:52:00
7:52 AM,69.8,64.4,83,29.74,10.0,SSW,12.7,-,N/A,,Clear,210,2012-10-24 12:52:00
8:52 AM,71.1,64.9,81,29.72,10.0,SSW,10.4,-,N/A,,Partly Cloudy,200,2012-10-24 13:52:00
9:52 AM,72.0,64.9,78,29.73,10.0,SSW,11.5,19.6,N/A,,Scattered Clouds,210,2012-10-24 14:52:00
10:52 AM,77.0,64.9,66,29.73,10.0,SSW,17.3,25.3,N/A,,Scattered Clouds,200,2012-10-24 15:52:00
10:59 AM,78.8,64.4,61,29.75,10.0,SSW,17.3,27.6,N/A,,Mostly Cloudy,200,2012-10-24 15:59:00
11:11 AM,78.8,64.4,61,29.75,10.0,SW,21.9,28.8,N/A,,Scattered Clouds,220,2012-10-24 16:11:00
11:52 AM,80.1,64.0,58,29.71,10.0,SSW,17.3,24.2,N/A,,Scattered Clouds,200,2012-10-24 16:52:00
11:59 AM,80.6,64.4,58,29.73,10.0,SSW,17.3,26.5,N/A,,Overcast,210,2012-10-24 16:59:00
12:06 PM,80.6,64.4,58,29.73,10.0,SSW,13.8,24.2,N/A,,Overcast,200,2012-10-24 17:06:00
12:52 PM,82.4,64.4,54,29.72,10.0,SSW,17.3,25.3,N/A,,Mostly Cloudy,210,2012-10-24 17:52:00
1:52 PM,81.0,63.0,54,29.68,10.0,SSW,19.6,25.3,N/A,,Partly Cloudy,210,2012-10-24 18:52:00
2:52 PM,81.0,64.0,56,29.66,10.0,South,15.0,26.5,N/A,,Mostly Cloudy,190,2012-10-24 19:52:00
3:52 PM,82.0,64.0,54,29.64,10.0,SSW,18.4,26.5,N/A,,Partly Cloudy,210,2012-10-24 20:52:00
4:52 PM,82.9,63.0,51,29.63,10.0,SW,17.3,24.2,N/A,,Partly Cloudy,220,2012-10-24 21:52:00
5:52 PM,82.0,63.0,52,29.62,10.0,SSW,15.0,-,N/A,,Scattered Clouds,200,2012-10-24 22:52:00
6:52 PM,75.9,60.1,58,29.63,10.0,NW,5.8,-,N/A,,Mostly Cloudy,310,2012-10-24 23:52:00
7:52 PM,71.6,59.0,64,29.67,10.0,NNW,4.6,-,N/A,,Mostly Cloudy,330,2012-10-25 00:52:00
8:52 PM,71.1,59.0,66,29.65,10.0,North,3.5,-,N/A,,Overcast,350,2012-10-25 01:52:00
9:52 PM,69.1,57.9,68,29.66,10.0,North,3.5,-,N/A,,Overcast,360,2012-10-25 02:52:00
10:52 PM,66.0,57.0,73,29.66,10.0,Variable,5.8,-,N/A,,Overcast,0,2012-10-25 03:52:00
11:15 PM,64.4,57.2,77,29.68,10.0,North,6.9,-,N/A,,Overcast,350,2012-10-25 04:15:00
11:52 PM,62.1,57.0,84,29.65,9.0,NNE,6.9,-,0.00,,Overcast,20,2012-10-25 04:52:00